sensor_id;sensor_type;location;lat;lon;timestamp;pressure;altitude;pressure_sealevel;temperature;humidity
34297;BME280;20564;42.902;25.336;2022-08-19T00:01:56;96855.16;;;19.58;83.33
34297;BME280;20564;42.902;25.336;2022-08-19T00:04:28;96860.06;;;19.61;82.97
34297;BME280;20564;42.902;25.336;2022-08-19T00:07:00;96856.38;;;19.62;83.15
34297;BME280;20564;42.902;25.336;2022-08-19T00:09:28;96863.38;;;19.63;82.50
34297;BME280;20564;42.902;25.336;2022-08-19T00:11:56;96862.34;;;19.57;83.23
34297;BME280;20564;42.902;25.336;2022-08-19T00:14:25;96862.72;;;19.47;83.64
34297;BME280;20564;42.902;25.336;2022-08-19T00:16:54;96855.13;;;19.38;83.95
34297;BME280;20564;42.902;25.336;2022-08-19T00:19:23;96857.59;;;19.33;84.37
34297;BME280;20564;42.902;25.336;2022-08-19T00:21:50;96855.13;;;19.31;84.42
34297;BME280;20564;42.902;25.336;2022-08-19T00:24:18;96850.59;;;19.25;83.69
34297;BME280;20564;42.902;25.336;2022-08-19T00:26:46;96845.88;;;19.20;84.67
34297;BME280;20564;42.902;25.336;2022-08-19T00:29:15;96845.47;;;19.17;84.94
34297;BME280;20564;42.902;25.336;2022-08-19T00:31:44;96843.41;;;19.19;85.06
34297;BME280;20564;42.902;25.336;2022-08-19T00:34:12;96848.94;;;19.17;85.45
34297;BME280;20564;42.902;25.336;2022-08-19T00:36:41;96850.16;;;19.15;85.06
34297;BME280;20564;42.902;25.336;2022-08-19T00:39:09;96849.38;;;19.21;84.62
34297;BME280;20564;42.902;25.336;2022-08-19T00:41:36;96853.88;;;19.20;85.00
34297;BME280;20564;42.902;25.336;2022-08-19T00:44:07;96853.06;;;19.20;84.86
34297;BME280;20564;42.902;25.336;2022-08-19T00:46:37;96852.66;;;19.16;84.41
34297;BME280;20564;42.902;25.336;2022-08-19T00:51:57;96844.81;;;19.08;85.12
34297;BME280;20564;42.902;25.336;2022-08-19T00:54:28;96840.31;;;19.09;85.15
34297;BME280;20564;42.902;25.336;2022-08-19T00:56:58;96842.78;;;19.10;84.49
34297;BME280;20564;42.902;25.336;2022-08-19T00:59:27;96847.91;;;19.12;84.75
34297;BME280;20564;42.902;25.336;2022-08-19T01:02:15;96845.44;;;19.03;84.65
34297;BME280;20564;42.902;25.336;2022-08-19T01:04:43;96848.47;;;18.94;84.96
34297;BME280;20564;42.902;25.336;2022-08-19T01:07:10;96851.97;;;18.88;85.93
34297;BME280;20564;42.902;25.336;2022-08-19T01:09:45;96849.31;;;18.94;86.73
34297;BME280;20564;42.902;25.336;2022-08-19T01:12:12;96841.91;;;18.90;86.50
34297;BME280;20564;42.902;25.336;2022-08-19T01:14:40;96846.41;;;18.89;86.05
34297;BME280;20564;42.902;25.336;2022-08-19T01:17:08;96853.81;;;18.87;86.30
34297;BME280;20564;42.902;25.336;2022-08-19T01:19:39;96844.97;;;18.80;86.36
34297;BME280;20564;42.902;25.336;2022-08-19T01:22:30;96847.59;;;18.73;86.33
34297;BME280;20564;42.902;25.336;2022-08-19T01:25:00;96853.50;;;18.69;86.85
34297;BME280;20564;42.902;25.336;2022-08-19T01:27:39;96852.47;;;18.70;86.87
34297;BME280;20564;42.902;25.336;2022-08-19T01:30:12;96850.47;;;18.78;86.83
34297;BME280;20564;42.902;25.336;2022-08-19T01:32:39;96852.94;;;18.73;86.32
34297;BME280;20564;42.902;25.336;2022-08-19T01:35:07;96855.22;;;18.76;86.00
34297;BME280;20564;42.902;25.336;2022-08-19T01:40:11;96864.81;;;18.71;86.57
34297;BME280;20564;42.902;25.336;2022-08-19T01:42:38;96861.91;;;18.66;87.27
34297;BME280;20564;42.902;25.336;2022-08-19T01:45:06;96860.03;;;18.60;87.59
34297;BME280;20564;42.902;25.336;2022-08-19T01:47:37;96862.47;;;18.54;88.00
34297;BME280;20564;42.902;25.336;2022-08-19T01:50:07;96859.41;;;18.58;87.61
34297;BME280;20564;42.902;25.336;2022-08-19T01:52:36;96863.53;;;18.67;87.83
34297;BME280;20564;42.902;25.336;2022-08-19T01:55:07;96865.56;;;18.65;87.57
34297;BME280;20564;42.902;25.336;2022-08-19T01:57:35;96864.34;;;18.67;87.06
34297;BME280;20564;42.902;25.336;2022-08-19T02:00:06;96861.22;;;18.57;87.42
34297;BME280;20564;42.902;25.336;2022-08-19T02:02:34;96867.81;;;18.54;87.64
34297;BME280;20564;42.902;25.336;2022-08-19T02:05:03;96866.69;;;18.42;88.29
34297;BME280;20564;42.902;25.336;2022-08-19T02:07:30;96874.03;;;18.34;89.20
34297;BME280;20564;42.902;25.336;2022-08-19T02:10:04;96869.97;;;18.38;89.21
34297;BME280;20564;42.902;25.336;2022-08-19T02:12:38;96870.56;;;18.33;89.53
34297;BME280;20564;42.902;25.336;2022-08-19T02:15:05;96875.72;;;18.41;88.69
34297;BME280;20564;42.902;25.336;2022-08-19T02:17:34;96874.69;;;18.42;88.96
34297;BME280;20564;42.902;25.336;2022-08-19T02:20:02;96873.69;;;18.43;88.53
34297;BME280;20564;42.902;25.336;2022-08-19T02:22:29;96873.28;;;18.46;88.28
34297;BME280;20564;42.902;25.336;2022-08-19T02:24:56;96879.03;;;18.43;88.71
34297;BME280;20564;42.902;25.336;2022-08-19T02:27:23;96880.66;;;18.44;88.57
34297;BME280;20564;42.902;25.336;2022-08-19T02:29:51;96883.50;;;18.36;88.75
34297;BME280;20564;42.902;25.336;2022-08-19T02:32:19;96887.38;;;18.34;89.01
34297;BME280;20564;42.902;25.336;2022-08-19T02:34:47;96889.44;;;18.38;88.81
34297;BME280;20564;42.902;25.336;2022-08-19T02:37:13;96872.41;;;18.33;88.31
34297;BME280;20564;42.902;25.336;2022-08-19T02:40:00;96880.38;;;18.26;89.53
34297;BME280;20564;42.902;25.336;2022-08-19T02:42:28;96877.69;;;18.26;88.91
34297;BME280;20564;42.902;25.336;2022-08-19T02:44:56;96883.63;;;18.21;89.85
34297;BME280;20564;42.902;25.336;2022-08-19T02:47:23;96882.38;;;18.17;89.73
34297;BME280;20564;42.902;25.336;2022-08-19T02:49:50;96890.75;;;18.21;90.08
34297;BME280;20564;42.902;25.336;2022-08-19T02:52:17;96899.72;;;18.13;90.52
34297;BME280;20564;42.902;25.336;2022-08-19T02:54:44;96893.97;;;18.10;90.19
34297;BME280;20564;42.902;25.336;2022-08-19T02:57:12;96896.84;;;18.08;91.58
34297;BME280;20564;42.902;25.336;2022-08-19T02:59:39;96898.91;;;18.13;92.03
34297;BME280;20564;42.902;25.336;2022-08-19T03:02:07;96898.53;;;18.16;90.50
34297;BME280;20564;42.902;25.336;2022-08-19T03:04:34;96891.56;;;18.15;89.87
34297;BME280;20564;42.902;25.336;2022-08-19T03:07:01;96893.59;;;18.13;90.50
34297;BME280;20564;42.902;25.336;2022-08-19T03:09:37;96890.06;;;18.05;90.14
34297;BME280;20564;42.902;25.336;2022-08-19T03:12:05;96894.78;;;18.03;89.77
34297;BME280;20564;42.902;25.336;2022-08-19T03:14:32;96892.72;;;18.05;89.75
34297;BME280;20564;42.902;25.336;2022-08-19T03:17:00;96898.44;;;18.02;89.96
34297;BME280;20564;42.902;25.336;2022-08-19T03:19:27;96903.53;;;17.97;91.09
34297;BME280;20564;42.902;25.336;2022-08-19T03:21:55;96910.69;;;17.97;93.04
34297;BME280;20564;42.902;25.336;2022-08-19T03:24:22;96920.16;;;17.99;92.31
34297;BME280;20564;42.902;25.336;2022-08-19T03:26:54;96920.16;;;17.99;91.12
34297;BME280;20564;42.902;25.336;2022-08-19T03:29:29;96914.81;;;17.99;90.16
34297;BME280;20564;42.902;25.336;2022-08-19T03:32:06;96916.84;;;17.97;90.41
34297;BME280;20564;42.902;25.336;2022-08-19T03:34:53;96929.91;;;17.92;90.50
34297;BME280;20564;42.902;25.336;2022-08-19T03:37:20;96930.69;;;17.86;91.45
34297;BME280;20564;42.902;25.336;2022-08-19T03:39:49;96935.78;;;17.81;91.69
34297;BME280;20564;42.902;25.336;2022-08-19T03:42:16;96933.72;;;17.83;91.55
34297;BME280;20564;42.902;25.336;2022-08-19T03:45:03;96937.19;;;17.83;91.82
34297;BME280;20564;42.902;25.336;2022-08-19T03:47:31;96941.91;;;17.81;91.64
34297;BME280;20564;42.902;25.336;2022-08-19T03:49:58;96944.38;;;17.83;91.76
34297;BME280;20564;42.902;25.336;2022-08-19T03:52:25;96942.91;;;17.80;91.87
34297;BME280;20564;42.902;25.336;2022-08-19T03:54:52;96940.44;;;17.79;92.12
34297;BME280;20564;42.902;25.336;2022-08-19T03:57:19;96939.34;;;17.73;92.40
34297;BME280;20564;42.902;25.336;2022-08-19T03:59:57;96945.78;;;17.79;91.91
34297;BME280;20564;42.902;25.336;2022-08-19T04:02:40;96945.03;;;17.85;92.04
34297;BME280;20564;42.902;25.336;2022-08-19T04:05:28;96947.09;;;17.90;91.76
34297;BME280;20564;42.902;25.336;2022-08-19T04:07:55;96946.66;;;17.86;91.53
34297;BME280;20564;42.902;25.336;2022-08-19T04:10:27;96953.00;;;17.85;91.90
34297;BME280;20564;42.902;25.336;2022-08-19T04:12:54;96948.13;;;17.89;91.99
34297;BME280;20564;42.902;25.336;2022-08-19T04:15:22;96946.66;;;17.86;92.39
34297;BME280;20564;42.902;25.336;2022-08-19T04:17:49;96943.78;;;17.88;92.48
34297;BME280;20564;42.902;25.336;2022-08-19T04:20:16;96950.59;;;17.90;92.69
34297;BME280;20564;42.902;25.336;2022-08-19T04:22:43;96946.13;;;17.97;92.44
34297;BME280;20564;42.902;25.336;2022-08-19T04:25:11;96946.78;;;17.99;92.40
34297;BME280;20564;42.902;25.336;2022-08-19T04:27:38;96946.34;;;17.96;91.95
34297;BME280;20564;42.902;25.336;2022-08-19T04:30:05;96943.31;;;18.05;92.75
34297;BME280;20564;42.902;25.336;2022-08-19T04:32:33;96944.56;;;18.10;91.80
34297;BME280;20564;42.902;25.336;2022-08-19T04:35:02;96943.97;;;18.07;93.73
34297;BME280;20564;42.902;25.336;2022-08-19T04:37:43;96938.06;;;18.12;94.42
34297;BME280;20564;42.902;25.336;2022-08-19T04:40:10;96951.28;;;18.27;93.47
34297;BME280;20564;42.902;25.336;2022-08-19T04:42:56;96949.97;;;18.44;92.40
34297;BME280;20564;42.902;25.336;2022-08-19T04:45:24;96957.00;;;18.59;90.56
34297;BME280;20564;42.902;25.336;2022-08-19T04:47:54;96951.31;;;18.68;90.80
34297;BME280;20564;42.902;25.336;2022-08-19T04:50:43;96956.56;;;18.90;90.24
34297;BME280;20564;42.902;25.336;2022-08-19T04:53:10;96949.69;;;19.09;89.62
34297;BME280;20564;42.902;25.336;2022-08-19T04:55:41;96951.38;;;19.23;88.78
34297;BME280;20564;42.902;25.336;2022-08-19T04:58:09;96954.47;;;19.33;87.97
34297;BME280;20564;42.902;25.336;2022-08-19T05:00:38;96949.19;;;19.53;87.63
34297;BME280;20564;42.902;25.336;2022-08-19T05:03:07;96954.78;;;19.78;84.16
34297;BME280;20564;42.902;25.336;2022-08-19T05:05:40;96956.66;;;19.97;83.19
34297;BME280;20564;42.902;25.336;2022-08-19T05:08:12;96950.50;;;20.17;81.95
34297;BME280;20564;42.902;25.336;2022-08-19T05:10:41;96950.47;;;20.43;80.42
34297;BME280;20564;42.902;25.336;2022-08-19T05:13:09;96943.03;;;20.72;78.12
34297;BME280;20564;42.902;25.336;2022-08-19T05:15:36;96939.41;;;21.05;76.67
34297;BME280;20564;42.902;25.336;2022-08-19T05:18:03;96936.19;;;21.34;74.64
34297;BME280;20564;42.902;25.336;2022-08-19T05:20:49;96934.81;;;21.57;74.13
34297;BME280;20564;42.902;25.336;2022-08-19T05:23:35;96935.88;;;21.87;73.52
34297;BME280;20564;42.902;25.336;2022-08-19T05:26:02;96926.97;;;22.12;72.92
34297;BME280;20564;42.902;25.336;2022-08-19T05:28:30;96933.28;;;22.49;70.77
34297;BME280;20564;42.902;25.336;2022-08-19T05:30:57;96923.69;;;22.78;68.04
34297;BME280;20564;42.902;25.336;2022-08-19T05:33:24;96926.06;;;23.05;67.19
34297;BME280;20564;42.902;25.336;2022-08-19T05:35:52;96927.50;;;23.38;68.52
34297;BME280;20564;42.902;25.336;2022-08-19T05:38:19;96928.47;;;23.73;67.23
34297;BME280;20564;42.902;25.336;2022-08-19T05:40:46;96927.59;;;24.03;64.84
34297;BME280;20564;42.902;25.336;2022-08-19T05:43:16;96930.28;;;24.38;65.07
34297;BME280;20564;42.902;25.336;2022-08-19T05:45:43;96914.84;;;24.69;60.58
34297;BME280;20564;42.902;25.336;2022-08-19T05:48:10;96912.53;;;25.01;58.12
34297;BME280;20564;42.902;25.336;2022-08-19T05:50:39;96908.75;;;25.25;59.25
34297;BME280;20564;42.902;25.336;2022-08-19T05:53:07;96917.56;;;25.49;57.14
34297;BME280;20564;42.902;25.336;2022-08-19T05:55:36;96916.66;;;25.78;57.99
34297;BME280;20564;42.902;25.336;2022-08-19T05:58:05;96903.63;;;26.03;56.42
34297;BME280;20564;42.902;25.336;2022-08-19T06:00:36;96911.31;;;26.28;56.99
34297;BME280;20564;42.902;25.336;2022-08-19T06:03:04;96905.91;;;26.45;55.40
34297;BME280;20564;42.902;25.336;2022-08-19T06:05:39;96905.19;;;26.72;54.53
34297;BME280;20564;42.902;25.336;2022-08-19T06:08:17;96911.75;;;26.98;53.33
34297;BME280;20564;42.902;25.336;2022-08-19T06:10:45;96896.31;;;27.15;51.33
34297;BME280;20564;42.902;25.336;2022-08-19T06:13:12;96911.91;;;27.35;51.08
34297;BME280;20564;42.902;25.336;2022-08-19T06:15:39;96907.06;;;27.64;48.64
34297;BME280;20564;42.902;25.336;2022-08-19T06:18:10;96902.16;;;27.83;48.91
34297;BME280;20564;42.902;25.336;2022-08-19T06:20:38;96914.16;;;27.97;49.46
34297;BME280;20564;42.902;25.336;2022-08-19T06:23:21;96904.38;;;28.23;47.80
34297;BME280;20564;42.902;25.336;2022-08-19T06:25:49;96909.13;;;28.43;47.68
34297;BME280;20564;42.902;25.336;2022-08-19T06:28:16;96906.00;;;28.67;45.25
34297;BME280;20564;42.902;25.336;2022-08-19T06:30:44;96899.28;;;28.74;44.81
34297;BME280;20564;42.902;25.336;2022-08-19T06:33:11;96900.16;;;28.85;43.92
34297;BME280;20564;42.902;25.336;2022-08-19T06:35:40;96907.28;;;29.06;44.90
34297;BME280;20564;42.902;25.336;2022-08-19T06:38:07;96903.56;;;29.28;45.06
34297;BME280;20564;42.902;25.336;2022-08-19T06:40:36;96898.25;;;29.59;43.77
34297;BME280;20564;42.902;25.336;2022-08-19T06:43:04;96904.78;;;29.88;41.83
34297;BME280;20564;42.902;25.336;2022-08-19T06:45:36;96909.72;;;30.17;41.71
34297;BME280;20564;42.902;25.336;2022-08-19T06:48:05;96895.53;;;30.50;41.77
34297;BME280;20564;42.902;25.336;2022-08-19T06:50:33;96890.06;;;30.76;41.52
34297;BME280;20564;42.902;25.336;2022-08-19T06:53:05;96895.09;;;31.03;41.57
34297;BME280;20564;42.902;25.336;2022-08-19T06:55:32;96898.47;;;31.39;42.08
34297;BME280;20564;42.902;25.336;2022-08-19T06:58:03;96890.69;;;31.67;40.99
34297;BME280;20564;42.902;25.336;2022-08-19T07:00:30;96898.00;;;31.72;40.51
34297;BME280;20564;42.902;25.336;2022-08-19T07:02:58;96893.81;;;31.84;41.28
34297;BME280;20564;42.902;25.336;2022-08-19T07:05:31;96894.31;;;31.97;41.21
34297;BME280;20564;42.902;25.336;2022-08-19T07:07:59;96899.06;;;32.15;38.73
34297;BME280;20564;42.902;25.336;2022-08-19T07:10:30;96896.50;;;32.24;39.48
34297;BME280;20564;42.902;25.336;2022-08-19T07:12:59;96899.03;;;32.49;38.87
34297;BME280;20564;42.902;25.336;2022-08-19T07:15:27;96888.34;;;32.53;38.14
34297;BME280;20564;42.902;25.336;2022-08-19T07:17:54;96896.94;;;32.65;37.31
34297;BME280;20564;42.902;25.336;2022-08-19T07:20:21;96891.22;;;32.67;36.35
34297;BME280;20564;42.902;25.336;2022-08-19T07:22:54;96893.34;;;32.70;36.81
34297;BME280;20564;42.902;25.336;2022-08-19T07:25:21;96893.63;;;32.92;36.68
34297;BME280;20564;42.902;25.336;2022-08-19T07:27:57;96888.16;;;33.16;36.15
34297;BME280;20564;42.902;25.336;2022-08-19T07:30:27;96886.69;;;33.24;35.54
34297;BME280;20564;42.902;25.336;2022-08-19T07:32:57;96904.53;;;33.16;35.60
34297;BME280;20564;42.902;25.336;2022-08-19T07:35:24;96886.28;;;33.17;35.47
34297;BME280;20564;42.902;25.336;2022-08-19T07:37:52;96905.13;;;32.89;36.26
34297;BME280;20564;42.902;25.336;2022-08-19T07:40:20;96900.63;;;33.03;35.54
34297;BME280;20564;42.902;25.336;2022-08-19T07:42:47;96908.97;;;33.31;35.23
34297;BME280;20564;42.902;25.336;2022-08-19T07:45:14;96889.94;;;33.50;34.72
34297;BME280;20564;42.902;25.336;2022-08-19T07:47:42;96891.91;;;33.63;34.14
34297;BME280;20564;42.902;25.336;2022-08-19T07:50:24;96902.47;;;33.51;33.92
34297;BME280;20564;42.902;25.336;2022-08-19T07:52:51;96892.88;;;33.72;34.36
34297;BME280;20564;42.902;25.336;2022-08-19T07:55:24;96899.00;;;33.97;34.72
34297;BME280;20564;42.902;25.336;2022-08-19T07:58:13;96892.19;;;33.80;34.73
34297;BME280;20564;42.902;25.336;2022-08-19T08:00:51;96891.31;;;33.66;33.99
34297;BME280;20564;42.902;25.336;2022-08-19T08:03:21;96891.50;;;33.89;36.68
34297;BME280;20564;42.902;25.336;2022-08-19T08:06:08;96888.38;;;34.14;35.39
34297;BME280;20564;42.902;25.336;2022-08-19T08:08:55;96881.88;;;34.43;34.40
34297;BME280;20564;42.902;25.336;2022-08-19T08:11:39;96885.72;;;34.42;33.91
34297;BME280;20564;42.902;25.336;2022-08-19T08:14:08;96883.00;;;34.42;34.07
34297;BME280;20564;42.902;25.336;2022-08-19T08:16:57;96875.94;;;34.54;32.47
34297;BME280;20564;42.902;25.336;2022-08-19T08:19:26;96880.00;;;34.57;32.08
34297;BME280;20564;42.902;25.336;2022-08-19T08:21:56;96874.72;;;34.14;33.53
34297;BME280;20564;42.902;25.336;2022-08-19T08:24:25;96879.91;;;33.97;33.33
34297;BME280;20564;42.902;25.336;2022-08-19T08:26:54;96881.00;;;33.96;33.28
34297;BME280;20564;42.902;25.336;2022-08-19T08:29:23;96874.72;;;34.14;33.73
34297;BME280;20564;42.902;25.336;2022-08-19T08:31:51;96876.84;;;34.50;33.32
34297;BME280;20564;42.902;25.336;2022-08-19T08:34:25;96882.63;;;34.90;33.18
34297;BME280;20564;42.902;25.336;2022-08-19T08:36:55;96877.38;;;35.07;32.06
34297;BME280;20564;42.902;25.336;2022-08-19T08:39:22;96883.75;;;35.16;31.45
34297;BME280;20564;42.902;25.336;2022-08-19T08:42:04;96874.34;;;35.09;30.80
34297;BME280;20564;42.902;25.336;2022-08-19T08:44:47;96879.69;;;34.72;32.45
34297;BME280;20564;42.902;25.336;2022-08-19T08:47:18;96877.53;;;34.42;32.29
34297;BME280;20564;42.902;25.336;2022-08-19T08:50:05;96875.06;;;34.40;32.92
34297;BME280;20564;42.902;25.336;2022-08-19T08:52:37;96879.41;;;34.60;32.62
34297;BME280;20564;42.902;25.336;2022-08-19T08:55:24;96875.75;;;34.65;32.09
34297;BME280;20564;42.902;25.336;2022-08-19T08:57:56;96877.75;;;34.73;32.79
34297;BME280;20564;42.902;25.336;2022-08-19T09:00:29;96876.88;;;34.77;32.43
34297;BME280;20564;42.902;25.336;2022-08-19T09:02:58;96871.28;;;34.55;32.56
34297;BME280;20564;42.902;25.336;2022-08-19T09:05:59;96864.00;;;34.50;32.36
34297;BME280;20564;42.902;25.336;2022-08-19T09:08:55;96868.94;;;34.62;31.60
34297;BME280;20564;42.902;25.336;2022-08-19T09:17:20;96865.09;;;34.91;32.23
34297;BME280;20564;42.902;25.336;2022-08-19T09:20:01;96859.81;;;34.94;31.57
34297;BME280;20564;42.902;25.336;2022-08-19T09:22:39;96868.34;;;34.65;31.60
34297;BME280;20564;42.902;25.336;2022-08-19T09:25:13;96861.88;;;34.61;32.57
34297;BME280;20564;42.902;25.336;2022-08-19T09:27:43;96863.28;;;34.86;32.26
34297;BME280;20564;42.902;25.336;2022-08-19T09:30:19;96858.47;;;35.33;31.07
34297;BME280;20564;42.902;25.336;2022-08-19T09:32:48;96855.75;;;35.69;31.07
34297;BME280;20564;42.902;25.336;2022-08-19T09:35:22;96864.41;;;35.49;30.33
34297;BME280;20564;42.902;25.336;2022-08-19T09:37:51;96858.94;;;35.49;31.01
34297;BME280;20564;42.902;25.336;2022-08-19T09:40:24;96855.13;;;35.36;31.98
34297;BME280;20564;42.902;25.336;2022-08-19T09:42:55;96850.38;;;35.64;31.49
34297;BME280;20564;42.902;25.336;2022-08-19T09:45:24;96847.78;;;35.82;30.49
34297;BME280;20564;42.902;25.336;2022-08-19T09:47:52;96844.66;;;35.97;29.85
34297;BME280;20564;42.902;25.336;2022-08-19T09:50:22;96842.34;;;35.90;31.01
34297;BME280;20564;42.902;25.336;2022-08-19T09:52:50;96836.22;;;35.62;30.84
34297;BME280;20564;42.902;25.336;2022-08-19T09:55:24;96827.66;;;35.64;31.01
34297;BME280;20564;42.902;25.336;2022-08-19T09:58:00;96840.94;;;35.70;30.79
34297;BME280;20564;42.902;25.336;2022-08-19T10:00:27;96836.44;;;35.52;31.02
34297;BME280;20564;42.902;25.336;2022-08-19T10:02:55;96839.75;;;35.26;31.21
34297;BME280;20564;42.902;25.336;2022-08-19T10:05:22;96836.34;;;35.43;30.59
34297;BME280;20564;42.902;25.336;2022-08-19T10:08:09;96833.84;;;35.69;30.52
34297;BME280;20564;42.902;25.336;2022-08-19T10:10:41;96828.59;;;36.04;30.34
34297;BME280;20564;42.902;25.336;2022-08-19T10:13:13;96832.94;;;36.28;29.75
34297;BME280;20564;42.902;25.336;2022-08-19T10:15:41;96837.19;;;36.11;30.36
34297;BME280;20564;42.902;25.336;2022-08-19T10:18:14;96835.84;;;35.78;30.42
34297;BME280;20564;42.902;25.336;2022-08-19T10:20:48;96827.66;;;35.86;30.46
34297;BME280;20564;42.902;25.336;2022-08-19T10:23:18;96825.44;;;35.88;30.78
34297;BME280;20564;42.902;25.336;2022-08-19T10:25:47;96831.91;;;35.34;31.27
34297;BME280;20564;42.902;25.336;2022-08-19T10:28:14;96829.94;;;34.98;31.30
34297;BME280;20564;42.902;25.336;2022-08-19T10:30:45;96827.81;;;34.81;32.42
34297;BME280;20564;42.902;25.336;2022-08-19T10:33:13;96828.34;;;35.11;31.97
34297;BME280;20564;42.902;25.336;2022-08-19T10:36:04;96827.00;;;35.58;31.97
34297;BME280;20564;42.902;25.336;2022-08-19T10:38:32;96815.69;;;35.37;30.84
34297;BME280;20564;42.902;25.336;2022-08-19T10:41:12;96823.91;;;35.01;32.45
34297;BME280;20564;42.902;25.336;2022-08-19T10:43:40;96827.34;;;34.65;32.01
34297;BME280;20564;42.902;25.336;2022-08-19T10:46:10;96823.06;;;34.59;32.61
34297;BME280;20564;42.902;25.336;2022-08-19T10:48:43;96820.16;;;34.69;32.08
34297;BME280;20564;42.902;25.336;2022-08-19T10:51:11;96825.28;;;34.43;32.88
34297;BME280;20564;42.902;25.336;2022-08-19T10:53:58;96817.44;;;34.55;32.86
34297;BME280;20564;42.902;25.336;2022-08-19T10:56:27;96814.75;;;34.92;31.37
34297;BME280;20564;42.902;25.336;2022-08-19T10:59:13;96812.34;;;35.40;31.88
34297;BME280;20564;42.902;25.336;2022-08-19T11:01:43;96817.91;;;35.71;30.86
34297;BME280;20564;42.902;25.336;2022-08-19T11:04:11;96817.13;;;35.80;30.37
34297;BME280;20564;42.902;25.336;2022-08-19T11:06:41;96810.25;;;35.82;30.94
34297;BME280;20564;42.902;25.336;2022-08-19T11:09:10;96817.41;;;35.69;30.85
34297;BME280;20564;42.902;25.336;2022-08-19T11:11:38;96816.56;;;35.10;31.03
34297;BME280;20564;42.902;25.336;2022-08-19T11:14:10;96814.00;;;34.64;31.40
34297;BME280;20564;42.902;25.336;2022-08-19T11:16:38;96807.06;;;34.66;31.48
34297;BME280;20564;42.902;25.336;2022-08-19T11:19:07;96802.25;;;34.63;30.87
34297;BME280;20564;42.902;25.336;2022-08-19T11:21:43;96801.03;;;34.55;29.98
34297;BME280;20564;42.902;25.336;2022-08-19T11:24:19;96791.13;;;34.60;30.60
34297;BME280;20564;42.902;25.336;2022-08-19T11:26:48;96797.91;;;34.98;31.11
34297;BME280;20564;42.902;25.336;2022-08-19T11:29:18;96784.81;;;35.23;30.58
34297;BME280;20564;42.902;25.336;2022-08-19T11:31:47;96790.28;;;35.23;30.79
34297;BME280;20564;42.902;25.336;2022-08-19T11:34:19;96798.72;;;35.13;31.81
34297;BME280;20564;42.902;25.336;2022-08-19T11:36:47;96791.97;;;34.96;31.59
34297;BME280;20564;42.902;25.336;2022-08-19T11:39:18;96797.94;;;34.85;30.94
34297;BME280;20564;42.902;25.336;2022-08-19T11:41:45;96794.50;;;34.93;31.34
34297;BME280;20564;42.902;25.336;2022-08-19T11:44:13;96782.97;;;34.96;30.66
34297;BME280;20564;42.902;25.336;2022-08-19T11:46:42;96783.72;;;35.10;31.16
34297;BME280;20564;42.902;25.336;2022-08-19T11:49:17;96779.28;;;35.14;30.32
34297;BME280;20564;42.902;25.336;2022-08-19T11:51:46;96781.44;;;35.40;31.26
34297;BME280;20564;42.902;25.336;2022-08-19T11:54:15;96772.44;;;35.62;30.21
34297;BME280;20564;42.902;25.336;2022-08-19T11:56:44;96782.50;;;35.53;30.02
34297;BME280;20564;42.902;25.336;2022-08-19T11:59:13;96777.66;;;35.36;30.75
34297;BME280;20564;42.902;25.336;2022-08-19T12:01:41;96775.44;;;35.15;30.63
34297;BME280;20564;42.902;25.336;2022-08-19T12:04:10;96762.09;;;35.00;31.45
34297;BME280;20564;42.902;25.336;2022-08-19T12:06:39;96768.63;;;34.99;31.48
34297;BME280;20564;42.902;25.336;2022-08-19T12:09:08;96765.53;;;35.06;29.80
34297;BME280;20564;42.902;25.336;2022-08-19T12:11:37;96761.28;;;34.99;31.07
34297;BME280;20564;42.902;25.336;2022-08-19T12:14:09;96760.03;;;35.06;30.71
34297;BME280;20564;42.902;25.336;2022-08-19T12:16:40;96759.84;;;35.02;30.96
34297;BME280;20564;42.902;25.336;2022-08-19T12:19:15;96758.47;;;34.77;30.36
34297;BME280;20564;42.902;25.336;2022-08-19T12:21:49;96751.34;;;34.90;30.45
34297;BME280;20564;42.902;25.336;2022-08-19T12:24:16;96758.41;;;35.18;31.00
34297;BME280;20564;42.902;25.336;2022-08-19T12:27:08;96756.16;;;35.43;30.65
34297;BME280;20564;42.902;25.336;2022-08-19T12:29:38;96761.63;;;35.20;30.46
34297;BME280;20564;42.902;25.336;2022-08-19T12:32:06;96757.44;;;34.87;31.15
34297;BME280;20564;42.902;25.336;2022-08-19T12:34:38;96752.59;;;34.70;32.07
34297;BME280;20564;42.902;25.336;2022-08-19T12:37:06;96749.41;;;34.54;32.35
34297;BME280;20564;42.902;25.336;2022-08-19T12:39:39;96755.97;;;34.53;31.76
34297;BME280;20564;42.902;25.336;2022-08-19T12:42:09;96750.19;;;34.68;30.80
34297;BME280;20564;42.902;25.336;2022-08-19T12:44:38;96748.56;;;34.67;30.52
34297;BME280;20564;42.902;25.336;2022-08-19T12:47:09;96744.88;;;34.86;29.42
34297;BME280;20564;42.902;25.336;2022-08-19T12:49:37;96744.44;;;35.06;30.54
34297;BME280;20564;42.902;25.336;2022-08-19T12:52:22;96736.75;;;35.08;29.77
34297;BME280;20564;42.902;25.336;2022-08-19T12:54:52;96733.50;;;35.28;31.33
34297;BME280;20564;42.902;25.336;2022-08-19T12:57:27;96741.72;;;35.28;29.93
34297;BME280;20564;42.902;25.336;2022-08-19T13:00:01;96742.97;;;35.22;30.24
34297;BME280;20564;42.902;25.336;2022-08-19T13:02:31;96739.03;;;35.51;30.99
34297;BME280;20564;42.902;25.336;2022-08-19T13:05:05;96742.03;;;35.72;29.83
34297;BME280;20564;42.902;25.336;2022-08-19T13:07:35;96737.94;;;35.61;29.00
34297;BME280;20564;42.902;25.336;2022-08-19T13:10:03;96738.63;;;35.44;30.15
34297;BME280;20564;42.902;25.336;2022-08-19T13:12:30;96725.75;;;35.44;29.58
34297;BME280;20564;42.902;25.336;2022-08-19T13:14:57;96726.31;;;35.55;29.18
34297;BME280;20564;42.902;25.336;2022-08-19T13:17:24;96731.91;;;35.50;30.39
34297;BME280;20564;42.902;25.336;2022-08-19T13:19:51;96731.19;;;35.58;29.83
34297;BME280;20564;42.902;25.336;2022-08-19T13:22:19;96727.34;;;35.45;29.44